createdAt,value
2019-02-10T00:00:11.829Z,976.69
2019-02-10T00:01:11.814Z,976.76
2019-02-10T00:02:11.798Z,976.71
2019-02-10T00:03:11.792Z,976.77
2019-02-10T00:04:11.798Z,976.75
2019-02-10T00:05:11.769Z,976.72
2019-02-10T00:06:11.759Z,976.72
2019-02-10T00:07:11.751Z,976.75
2019-02-10T00:08:11.740Z,976.71
2019-02-10T00:09:11.727Z,976.67
2019-02-10T00:10:11.734Z,976.59
2019-02-10T00:11:11.705Z,976.65
2019-02-10T00:12:11.695Z,976.66
2019-02-10T00:13:11.686Z,976.61
2019-02-10T00:14:11.676Z,976.65
2019-02-10T00:15:11.663Z,976.64
2019-02-10T00:16:11.670Z,976.66
2019-02-10T00:17:11.644Z,976.58
2019-02-10T00:18:11.667Z,976.51
2019-02-10T00:19:11.622Z,976.50
2019-02-10T00:20:11.612Z,976.51
2019-02-10T00:21:11.601Z,976.56
2019-02-10T00:22:11.629Z,976.42
2019-02-10T00:23:11.581Z,976.47
2019-02-10T00:24:11.567Z,976.48
2019-02-10T00:25:11.561Z,976.39
2019-02-10T00:26:11.548Z,976.42
2019-02-10T00:27:11.535Z,976.41
2019-02-10T00:28:11.543Z,976.34
2019-02-10T00:29:11.518Z,976.38
2019-02-10T00:30:11.506Z,976.39
2019-02-10T00:31:11.494Z,976.37
2019-02-10T00:32:11.484Z,976.45
2019-02-10T00:33:11.475Z,976.42
2019-02-10T00:34:11.480Z,976.35
2019-02-10T00:35:11.455Z,976.29
2019-02-10T00:36:11.487Z,976.34
2019-02-10T00:37:11.431Z,976.28
2019-02-10T00:38:11.421Z,976.29
2019-02-10T00:39:11.412Z,976.24
2019-02-10T00:40:11.414Z,976.22
2019-02-10T00:41:11.397Z,976.18
2019-02-10T00:42:11.379Z,976.18
2019-02-10T00:43:11.369Z,976.21
2019-02-10T00:44:11.359Z,976.12
2019-02-10T00:45:11.347Z,976.09
2019-02-10T00:46:11.357Z,976.09
2019-02-10T00:47:11.324Z,976.09
2019-02-10T00:48:11.315Z,976.13
2019-02-10T00:49:11.306Z,976.03
2019-02-10T00:50:11.295Z,976.05
2019-02-10T00:51:11.280Z,976.05
2019-02-10T00:52:11.286Z,976.01
2019-02-10T00:53:11.263Z,976.05
2019-02-10T00:54:11.257Z,975.90
2019-02-10T00:55:11.242Z,975.86
2019-02-10T00:56:11.233Z,975.82
2019-02-10T00:57:11.220Z,975.84
2019-02-10T00:58:11.223Z,975.83
2019-02-10T00:59:11.200Z,975.82
2019-02-10T01:00:11.188Z,975.80
2019-02-10T01:01:11.179Z,975.79
2019-02-10T01:02:11.169Z,975.76
2019-02-10T01:03:11.156Z,975.81
2019-02-10T01:04:11.166Z,975.76
2019-02-10T01:05:11.139Z,975.81
2019-02-10T01:06:11.124Z,975.76
2019-02-10T01:07:11.114Z,975.70
2019-02-10T01:08:11.104Z,975.82
2019-02-10T01:09:11.092Z,975.78
2019-02-10T01:10:11.109Z,975.73
2019-02-10T01:11:11.069Z,975.71
2019-02-10T01:12:11.060Z,975.65
2019-02-10T01:13:11.051Z,975.64
2019-02-10T01:14:11.044Z,975.62
2019-02-10T01:15:11.022Z,975.58
2019-02-10T01:16:11.038Z,975.58
2019-02-10T01:17:11.011Z,975.50
2019-02-10T01:18:10.997Z,975.37
2019-02-10T01:19:10.993Z,975.46
2019-02-10T01:20:10.977Z,975.27
2019-02-10T01:21:10.971Z,975.38
2019-02-10T01:22:10.971Z,975.32
2019-02-10T01:23:10.946Z,975.29
2019-02-10T01:24:10.937Z,975.32
2019-02-10T01:25:10.923Z,975.30
2019-02-10T01:26:10.915Z,975.29
2019-02-10T01:27:10.903Z,975.29
2019-02-10T01:28:10.923Z,975.28
2019-02-10T01:29:10.882Z,975.23
2019-02-10T01:30:10.872Z,975.30
2019-02-10T01:31:10.862Z,975.14
2019-02-10T01:32:10.849Z,975.21
2019-02-10T01:33:10.839Z,975.17
2019-02-10T01:34:10.842Z,975.16
2019-02-10T01:35:10.816Z,975.15
2019-02-10T01:36:10.806Z,975.19
2019-02-10T01:37:10.797Z,975.09
2019-02-10T01:38:10.789Z,975.06
2019-02-10T01:39:10.774Z,975.02
2019-02-10T01:40:10.783Z,974.95
2019-02-10T01:41:10.753Z,974.88
2019-02-10T01:42:10.742Z,974.87
2019-02-10T01:43:10.733Z,974.88
2019-02-10T01:44:10.723Z,974.93
2019-02-10T01:45:10.708Z,974.93
2019-02-10T01:46:10.720Z,974.85
2019-02-10T01:47:10.687Z,974.74
2019-02-10T01:48:11.633Z,974.80
2019-02-10T01:49:10.667Z,974.78
2019-02-10T01:50:10.656Z,974.67
2019-02-10T01:51:10.652Z,974.68
2019-02-10T01:52:10.650Z,974.63
2019-02-10T01:53:10.625Z,974.60
2019-02-10T01:54:10.615Z,974.65
2019-02-10T01:55:10.609Z,974.54
2019-02-10T01:56:10.593Z,974.52
2019-02-10T01:57:10.583Z,974.54
2019-02-10T01:58:10.590Z,974.52
2019-02-10T01:59:10.561Z,974.49
2019-02-10T02:00:10.553Z,974.47
2019-02-10T02:01:10.539Z,974.47
2019-02-10T02:02:10.526Z,974.44
2019-02-10T02:03:10.519Z,974.42
2019-02-10T02:04:10.526Z,974.37
2019-02-10T02:05:10.497Z,974.38
2019-02-10T02:06:10.487Z,974.30
2019-02-10T02:07:10.482Z,974.22
2019-02-10T02:08:10.469Z,974.22
2019-02-10T02:09:10.455Z,974.19
2019-02-10T02:10:10.468Z,974.08
2019-02-10T02:11:10.432Z,974.05
2019-02-10T02:12:10.423Z,974.15
2019-02-10T02:13:10.414Z,973.96
2019-02-10T02:14:10.404Z,973.88
2019-02-10T02:15:10.391Z,973.94
2019-02-10T02:16:10.404Z,973.91
2019-02-10T02:17:10.371Z,973.85
2019-02-10T02:18:10.359Z,973.80
2019-02-10T02:19:10.349Z,973.77
2019-02-10T02:20:10.340Z,973.72
2019-02-10T02:21:10.326Z,973.69
2019-02-10T02:22:10.330Z,973.67
2019-02-10T02:23:10.307Z,973.61
2019-02-10T02:24:10.295Z,973.64
2019-02-10T02:25:10.285Z,973.58
2019-02-10T02:26:10.275Z,973.58
2019-02-10T02:27:10.266Z,973.54
2019-02-10T02:28:10.272Z,973.55
2019-02-10T02:29:10.244Z,973.42
2019-02-10T02:30:10.248Z,973.46
2019-02-10T02:31:10.227Z,973.35
2019-02-10T02:32:10.218Z,973.48
2019-02-10T02:33:10.198Z,973.42
2019-02-10T02:34:10.206Z,973.32
2019-02-10T02:35:10.180Z,973.35
2019-02-10T02:36:10.169Z,973.31
2019-02-10T02:37:10.160Z,973.24
2019-02-10T02:38:10.147Z,973.21
2019-02-10T02:39:10.153Z,973.21
2019-02-10T02:40:10.144Z,973.19
2019-02-10T02:41:10.114Z,973.15
2019-02-10T02:42:10.104Z,973.14
2019-02-10T02:43:10.098Z,973.11
2019-02-10T02:44:10.085Z,973.11
2019-02-10T02:45:10.080Z,973.09
2019-02-10T02:46:10.080Z,973.02
2019-02-10T02:47:10.053Z,973.00
2019-02-10T02:48:10.037Z,972.93
2019-02-10T02:49:10.031Z,972.98
2019-02-10T02:50:10.022Z,972.93
2019-02-10T02:51:10.012Z,972.93
2019-02-10T02:52:10.023Z,972.94
2019-02-10T02:53:09.990Z,972.90
2019-02-10T02:54:09.982Z,972.89
2019-02-10T02:55:09.993Z,972.85
2019-02-10T02:56:09.957Z,972.86
2019-02-10T02:57:09.949Z,972.80
2019-02-10T02:58:09.951Z,972.84
2019-02-10T02:59:09.928Z,972.79
2019-02-10T03:00:09.916Z,972.83
2019-02-10T03:01:09.905Z,972.73
2019-02-10T03:02:09.896Z,972.74
2019-02-10T03:03:09.883Z,972.70
2019-02-10T03:04:09.890Z,972.82
2019-02-10T03:05:09.878Z,972.74
2019-02-10T03:06:09.853Z,972.78
2019-02-10T03:07:17.848Z,972.75
2019-02-10T03:08:10.831Z,972.62
2019-02-10T03:09:09.819Z,972.58
2019-02-10T03:10:09.827Z,972.56
2019-02-10T03:11:09.798Z,972.52
2019-02-10T03:12:09.787Z,972.55
2019-02-10T03:13:09.778Z,972.48
2019-02-10T03:14:09.765Z,972.46
2019-02-10T03:15:09.757Z,972.48
2019-02-10T03:16:09.770Z,972.43
2019-02-10T03:17:09.733Z,972.46
2019-02-10T03:18:09.723Z,972.42
2019-02-10T03:19:09.713Z,972.39
2019-02-10T03:20:09.701Z,972.39
2019-02-10T03:21:09.694Z,972.46
2019-02-10T03:22:09.707Z,972.41
2019-02-10T03:23:09.669Z,972.41
2019-02-10T03:24:09.664Z,972.42
2019-02-10T03:25:09.648Z,972.50
2019-02-10T03:26:09.649Z,972.52
2019-02-10T03:27:09.634Z,972.51
2019-02-10T03:28:09.659Z,972.39
2019-02-10T03:29:09.607Z,972.37
2019-02-10T03:30:09.602Z,972.39
2019-02-10T03:31:09.586Z,972.46
2019-02-10T03:32:09.576Z,972.45
2019-02-10T03:33:09.572Z,972.36
2019-02-10T03:34:09.582Z,972.35
2019-02-10T03:35:09.543Z,972.30
2019-02-10T03:36:09.533Z,972.32
2019-02-10T03:37:09.525Z,972.29
2019-02-10T03:38:09.515Z,972.26
2019-02-10T03:39:09.509Z,972.19
2019-02-10T03:40:09.506Z,972.30
2019-02-10T03:41:09.480Z,972.34
2019-02-10T03:42:09.479Z,972.30
2019-02-10T03:43:09.458Z,972.32
2019-02-10T03:44:09.447Z,972.27
2019-02-10T03:45:09.438Z,972.22
2019-02-10T03:46:09.444Z,972.18
2019-02-10T03:47:09.415Z,972.24
2019-02-10T03:48:09.407Z,972.19
2019-02-10T03:49:09.395Z,972.13
2019-02-10T03:50:09.385Z,972.20
2019-02-10T03:51:09.373Z,972.22
2019-02-10T03:52:09.377Z,972.15
2019-02-10T03:53:09.354Z,971.97
2019-02-10T03:54:09.363Z,971.83
2019-02-10T03:55:09.331Z,971.90
2019-02-10T03:56:09.322Z,971.94
2019-02-10T03:57:09.311Z,972.00
2019-02-10T03:58:09.316Z,971.97
2019-02-10T03:59:09.291Z,972.06
2019-02-10T04:00:09.277Z,972.07
2019-02-10T04:01:09.269Z,972.08
2019-02-10T04:02:09.279Z,972.13
2019-02-10T04:03:09.247Z,972.11
2019-02-10T04:04:09.255Z,972.07
2019-02-10T04:05:09.228Z,972.09
2019-02-10T04:06:09.213Z,972.11
2019-02-10T04:07:09.205Z,972.12
2019-02-10T04:08:09.195Z,972.11
2019-02-10T04:09:09.185Z,972.11
2019-02-10T04:10:09.187Z,972.06
2019-02-10T04:11:09.168Z,972.02
2019-02-10T04:12:09.152Z,971.93
2019-02-10T04:13:09.139Z,971.97
2019-02-10T04:14:09.130Z,971.99
2019-02-10T04:15:09.120Z,971.93
2019-02-10T04:16:09.127Z,971.89
2019-02-10T04:17:09.098Z,971.91
2019-02-10T04:18:09.089Z,971.93
2019-02-10T04:19:09.078Z,972.01
2019-02-10T04:20:09.070Z,971.85
2019-02-10T04:21:09.056Z,971.91
2019-02-10T04:22:09.062Z,971.82
2019-02-10T04:23:09.036Z,971.78
2019-02-10T04:24:09.026Z,971.79
2019-02-10T04:25:09.016Z,971.67
2019-02-10T04:26:09.002Z,971.64
2019-02-10T04:27:08.994Z,971.57
2019-02-10T04:28:09.000Z,971.50
2019-02-10T04:29:08.975Z,971.47
2019-02-10T04:30:09.444Z,971.49
2019-02-10T04:31:08.956Z,971.48
2019-02-10T04:32:08.946Z,971.54
2019-02-10T04:33:08.929Z,971.53
2019-02-10T04:34:08.944Z,971.51
2019-02-10T04:35:08.909Z,971.41
2019-02-10T04:36:08.903Z,971.44
2019-02-10T04:37:08.887Z,971.43
2019-02-10T04:38:08.877Z,971.50
2019-02-10T04:39:08.862Z,971.51
2019-02-10T04:40:08.883Z,971.52
2019-02-10T04:41:08.850Z,971.47
2019-02-10T04:42:08.837Z,971.47
2019-02-10T04:43:08.824Z,971.45
2019-02-10T04:44:08.822Z,971.44
2019-02-10T04:45:08.808Z,971.40
2019-02-10T04:46:08.812Z,971.35
2019-02-10T04:47:08.782Z,971.37
2019-02-10T04:48:08.772Z,971.39
2019-02-10T04:49:08.764Z,971.43
2019-02-10T04:50:08.750Z,971.41
2019-02-10T04:51:08.741Z,971.33
2019-02-10T04:52:08.750Z,971.34
2019-02-10T04:53:08.722Z,971.34
2019-02-10T04:54:08.710Z,971.29
2019-02-10T04:55:08.699Z,971.24
2019-02-10T04:56:08.690Z,971.34
2019-02-10T04:57:08.686Z,971.27
2019-02-10T04:58:08.680Z,971.33
2019-02-10T04:59:08.658Z,971.23
2019-02-10T05:00:08.645Z,971.29
2019-02-10T05:01:08.637Z,971.22
2019-02-10T05:02:08.626Z,971.17
2019-02-10T05:03:08.617Z,971.14
2019-02-10T05:04:08.623Z,971.13
2019-02-10T05:05:08.627Z,971.15
2019-02-10T05:06:08.589Z,971.16
2019-02-10T05:07:08.577Z,971.21
2019-02-10T05:08:08.562Z,971.11
2019-02-10T05:09:08.554Z,971.10
2019-02-10T05:10:08.560Z,970.97
2019-02-10T05:11:08.533Z,970.95
2019-02-10T05:12:08.523Z,970.93
2019-02-10T05:13:08.513Z,970.98
2019-02-10T05:14:08.502Z,970.86
2019-02-10T05:15:08.489Z,970.85
2019-02-10T05:16:08.495Z,970.84
2019-02-10T05:17:08.470Z,970.91
2019-02-10T05:18:08.460Z,970.87
2019-02-10T05:19:08.449Z,970.80
2019-02-10T05:20:08.442Z,970.87
2019-02-10T05:21:08.431Z,970.73
2019-02-10T05:22:08.432Z,970.85
2019-02-10T05:23:08.408Z,970.88
2019-02-10T05:24:08.395Z,970.77
2019-02-10T05:25:08.386Z,970.78
2019-02-10T05:26:08.377Z,970.75
2019-02-10T05:27:15.464Z,970.65
2019-02-10T05:28:08.353Z,970.64
2019-02-10T05:29:08.350Z,970.64
2019-02-10T05:30:08.338Z,970.56
2019-02-10T05:31:08.325Z,970.66
2019-02-10T05:32:08.316Z,970.69
2019-02-10T05:33:08.319Z,970.61
2019-02-10T05:34:08.304Z,970.59
2019-02-10T05:35:08.286Z,970.46
2019-02-10T05:36:08.279Z,970.42
2019-02-10T05:37:08.261Z,970.41
2019-02-10T05:38:08.249Z,970.33
2019-02-10T05:39:08.302Z,970.52
2019-02-10T05:40:08.231Z,970.47
2019-02-10T05:41:08.224Z,970.44
2019-02-10T05:42:08.208Z,970.36
2019-02-10T05:43:08.199Z,970.46
2019-02-10T05:44:08.192Z,970.46
2019-02-10T05:45:08.200Z,970.43
2019-02-10T05:46:08.163Z,970.42
2019-02-10T05:47:08.157Z,970.48
2019-02-10T05:48:08.146Z,970.52
2019-02-10T05:49:08.133Z,970.49
2019-02-10T05:50:08.137Z,970.52
2019-02-10T05:51:08.134Z,970.51
2019-02-10T05:52:08.116Z,970.57
2019-02-10T05:53:08.097Z,970.48
2019-02-10T05:54:08.109Z,970.39
2019-02-10T05:55:08.078Z,970.46
2019-02-10T05:56:08.067Z,970.38
2019-02-10T05:57:08.070Z,970.44
2019-02-10T05:58:08.045Z,970.33
2019-02-10T05:59:08.040Z,970.37
2019-02-10T06:00:08.027Z,970.39
2019-02-10T06:01:08.008Z,970.38
2019-02-10T06:02:07.999Z,970.27
2019-02-10T06:03:08.012Z,970.32
2019-02-10T06:04:07.981Z,970.26
2019-02-10T06:05:07.981Z,970.18
2019-02-10T06:06:07.960Z,970.20
2019-02-10T06:07:07.945Z,970.19
2019-02-10T06:08:13.391Z,970.13
2019-02-10T06:09:08.989Z,970.10
2019-02-10T06:10:07.915Z,970.03
2019-02-10T06:11:07.928Z,970.15
2019-02-10T06:12:07.893Z,969.95
2019-02-10T06:13:07.883Z,969.89
2019-02-10T06:14:07.874Z,969.84
2019-02-10T06:15:07.903Z,969.82
2019-02-10T06:16:07.854Z,969.81
2019-02-10T06:17:07.848Z,969.78
2019-02-10T06:18:07.874Z,969.82
2019-02-10T06:19:07.819Z,969.87
2019-02-10T06:20:07.829Z,969.77
2019-02-10T06:21:07.831Z,969.81
2019-02-10T06:22:07.786Z,969.81
2019-02-10T06:23:15.470Z,969.77
2019-02-10T06:24:08.772Z,969.72
2019-02-10T06:25:07.827Z,969.58
2019-02-10T06:26:07.752Z,969.56
2019-02-10T06:27:07.763Z,969.61
2019-02-10T06:28:07.732Z,969.58
2019-02-10T06:29:07.722Z,969.58
2019-02-10T06:30:07.709Z,969.51
2019-02-10T06:31:07.694Z,969.53
2019-02-10T06:32:07.680Z,969.52
2019-02-10T06:33:08.572Z,969.47
2019-02-10T06:34:07.701Z,969.41
2019-02-10T06:35:07.654Z,969.39
2019-02-10T06:36:07.639Z,969.38
2019-02-10T06:37:07.633Z,969.49
2019-02-10T06:38:07.620Z,969.27
2019-02-10T06:39:07.633Z,969.33
2019-02-10T06:40:07.601Z,969.30
2019-02-10T06:41:07.588Z,969.39
2019-02-10T06:42:07.575Z,969.18
2019-02-10T06:43:07.568Z,969.24
2019-02-10T06:44:07.556Z,969.27
2019-02-10T06:45:07.627Z,969.14
2019-02-10T06:46:07.539Z,969.35
2019-02-10T06:47:07.524Z,969.24
2019-02-10T06:48:07.530Z,969.26
2019-02-10T06:49:07.506Z,969.33
2019-02-10T06:50:07.491Z,969.46
2019-02-10T06:51:07.498Z,969.42
2019-02-10T06:52:07.486Z,969.32
2019-02-10T06:53:07.466Z,969.31
2019-02-10T06:54:07.498Z,969.27
2019-02-10T06:55:07.498Z,969.37
2019-02-10T06:56:07.439Z,969.41
2019-02-10T06:57:07.520Z,969.36
2019-02-10T06:58:07.408Z,969.36
2019-02-10T06:59:07.406Z,969.34
2019-02-10T07:00:07.386Z,969.47
2019-02-10T07:01:07.373Z,969.35
2019-02-10T07:02:07.389Z,969.39
2019-02-10T07:03:07.369Z,969.37
2019-02-10T07:04:07.344Z,969.39
2019-02-10T07:05:07.331Z,969.33
2019-02-10T07:06:07.321Z,969.46
2019-02-10T07:07:07.308Z,969.30
2019-02-10T07:08:07.302Z,969.34
2019-02-10T07:09:07.305Z,969.34
2019-02-10T07:10:07.289Z,969.29
2019-02-10T07:11:07.275Z,969.22
2019-02-10T07:12:07.296Z,969.23
2019-02-10T07:13:07.246Z,969.19
2019-02-10T07:14:07.293Z,969.33
2019-02-10T07:15:07.239Z,969.20
2019-02-10T07:16:07.217Z,969.15
2019-02-10T07:17:07.202Z,969.09
2019-02-10T07:18:07.194Z,968.98
2019-02-10T07:19:07.185Z,969.10
2019-02-10T07:20:07.170Z,969.08
2019-02-10T07:21:07.176Z,969.11
2019-02-10T07:22:07.150Z,969.01
2019-02-10T07:23:07.141Z,968.97
2019-02-10T07:24:07.132Z,968.97
2019-02-10T07:25:07.118Z,968.72
2019-02-10T07:26:07.147Z,968.76
2019-02-10T07:27:07.112Z,968.84
2019-02-10T07:28:07.162Z,968.84
2019-02-10T07:29:07.420Z,968.84
2019-02-10T07:30:07.069Z,968.83
2019-02-10T07:31:07.083Z,968.58
2019-02-10T07:32:07.039Z,968.76
2019-02-10T07:33:07.060Z,968.54
2019-02-10T07:34:07.020Z,968.71
2019-02-10T07:35:07.026Z,968.62
2019-02-10T07:36:06.997Z,968.68
2019-02-10T07:37:06.988Z,968.76
2019-02-10T07:38:06.998Z,968.64
2019-02-10T07:39:06.984Z,968.69
2019-02-10T07:40:06.962Z,968.70
2019-02-10T07:41:06.952Z,968.59
2019-02-10T07:42:06.933Z,968.74
2019-02-10T07:43:06.927Z,968.55
2019-02-10T07:44:06.911Z,968.65
2019-02-10T07:45:06.915Z,968.64
2019-02-10T07:46:06.889Z,968.52
2019-02-10T07:47:06.883Z,968.57
2019-02-10T07:48:06.869Z,968.47
2019-02-10T07:49:06.858Z,968.45
2019-02-10T07:50:06.844Z,968.55
2019-02-10T07:51:06.854Z,968.59
2019-02-10T07:52:06.821Z,968.59
2019-02-10T07:53:06.814Z,968.54
2019-02-10T07:54:06.805Z,968.57
2019-02-10T07:55:06.789Z,968.58
2019-02-10T07:56:06.914Z,968.62
2019-02-10T07:57:06.796Z,968.69
2019-02-10T07:58:06.761Z,968.67
2019-02-10T07:59:06.757Z,968.66
2019-02-10T08:00:06.741Z,968.73
2019-02-10T08:01:06.728Z,968.78
2019-02-10T08:02:06.735Z,968.67
2019-02-10T08:03:06.728Z,968.78
2019-02-10T08:04:06.703Z,968.76
2019-02-10T08:05:06.694Z,968.83
2019-02-10T08:06:06.698Z,968.68
2019-02-10T08:07:06.661Z,968.81
2019-02-10T08:08:06.662Z,968.89
2019-02-10T08:09:06.664Z,968.90
2019-02-10T08:10:06.634Z,968.77
2019-02-10T08:11:06.627Z,968.66
2019-02-10T08:12:06.621Z,968.76
2019-02-10T08:13:06.600Z,968.84
2019-02-10T08:14:06.594Z,968.83
2019-02-10T08:15:06.600Z,968.75
2019-02-10T08:16:06.568Z,968.76
2019-02-10T08:17:06.569Z,968.76
2019-02-10T08:18:06.573Z,968.72
2019-02-10T08:19:06.538Z,968.55
2019-02-10T08:20:06.527Z,968.74
2019-02-10T08:21:06.532Z,968.70
2019-02-10T08:22:06.504Z,968.77
2019-02-10T08:23:06.495Z,968.67
2019-02-10T08:24:06.490Z,968.71
2019-02-10T08:25:06.476Z,968.69
2019-02-10T08:26:06.460Z,968.62
2019-02-10T08:27:06.499Z,968.64
2019-02-10T08:28:06.442Z,968.61
2019-02-10T08:29:06.435Z,968.58
2019-02-10T08:30:06.419Z,968.76
2019-02-10T08:31:06.406Z,968.37
2019-02-10T08:32:06.397Z,968.63
2019-02-10T08:33:06.409Z,968.66
2019-02-10T08:34:06.374Z,968.50
2019-02-10T08:35:06.375Z,968.45
2019-02-10T08:36:06.355Z,968.48
2019-02-10T08:37:06.342Z,968.42
2019-02-10T08:38:06.346Z,968.41
2019-02-10T08:39:06.333Z,968.39
2019-02-10T08:40:06.316Z,968.44
2019-02-10T08:41:06.299Z,968.44
2019-02-10T08:42:06.290Z,968.37
2019-02-10T08:43:06.275Z,968.47
2019-02-10T08:44:06.266Z,968.49
2019-02-10T08:45:06.268Z,968.32
2019-02-10T08:46:06.245Z,968.37
2019-02-10T08:47:06.234Z,968.23
2019-02-10T08:48:06.222Z,968.23
2019-02-10T08:49:06.215Z,968.24
2019-02-10T08:50:06.208Z,968.31
2019-02-10T08:51:06.205Z,968.35
2019-02-10T08:52:06.189Z,968.22
2019-02-10T08:53:06.167Z,968.10
2019-02-10T08:54:06.163Z,968.12
2019-02-10T08:55:06.205Z,968.13
2019-02-10T08:56:06.135Z,968.16
2019-02-10T08:57:06.139Z,968.09
2019-02-10T08:58:06.118Z,968.03
2019-02-10T08:59:06.109Z,968.12
2019-02-10T09:00:06.115Z,968.07
2019-02-10T09:01:06.078Z,968.08
2019-02-10T09:02:06.079Z,967.89
2019-02-10T09:03:06.077Z,967.97
2019-02-10T09:04:06.054Z,967.88
2019-02-10T09:05:06.046Z,967.83
2019-02-10T09:06:06.038Z,967.72
2019-02-10T09:07:06.018Z,967.84
2019-02-10T09:08:06.013Z,967.81
2019-02-10T09:09:06.016Z,967.73
2019-02-10T09:10:05.988Z,967.70
2019-02-10T09:11:05.973Z,967.67
2019-02-10T09:12:05.961Z,967.68
2019-02-10T09:13:05.960Z,967.64
2019-02-10T09:14:05.942Z,967.66
2019-02-10T09:15:05.948Z,967.56
2019-02-10T09:16:05.923Z,967.60
2019-02-10T09:17:05.910Z,967.70
2019-02-10T09:18:05.897Z,967.66
2019-02-10T09:19:05.887Z,967.72
2019-02-10T09:20:05.881Z,967.68
2019-02-10T09:21:05.881Z,967.58
2019-02-10T09:22:05.856Z,967.59
2019-02-10T09:23:05.840Z,967.66
2019-02-10T09:24:05.840Z,967.48
2019-02-10T09:25:05.821Z,967.48
2019-02-10T09:26:05.815Z,967.55
2019-02-10T09:27:05.818Z,967.52
2019-02-10T09:28:05.789Z,967.51
2019-02-10T09:29:05.779Z,967.42
2019-02-10T09:30:05.776Z,967.50
2019-02-10T09:31:05.760Z,967.44
2019-02-10T09:32:05.749Z,967.39
2019-02-10T09:33:05.757Z,967.24
2019-02-10T09:34:05.728Z,967.11
2019-02-10T09:35:05.716Z,967.28
2019-02-10T09:36:05.706Z,967.23
2019-02-10T09:37:07.449Z,967.27
2019-02-10T09:38:05.684Z,967.12
2019-02-10T09:39:10.624Z,967.14
2019-02-10T09:40:06.670Z,967.03
2019-02-10T09:41:05.662Z,967.02
2019-02-10T09:42:05.645Z,967.01
2019-02-10T09:43:05.632Z,967.12
2019-02-10T09:44:05.619Z,967.02
2019-02-10T09:45:05.636Z,966.95
2019-02-10T09:46:05.600Z,966.92
2019-02-10T09:47:05.586Z,966.83
2019-02-10T09:48:05.577Z,966.85
2019-02-10T09:49:05.564Z,966.81
2019-02-10T09:50:05.557Z,966.76
2019-02-10T09:51:05.559Z,966.80
2019-02-10T09:52:05.532Z,966.79
2019-02-10T09:53:05.523Z,966.73
2019-02-10T09:54:05.510Z,966.72
2019-02-10T09:55:05.509Z,966.66
2019-02-10T09:56:05.484Z,966.63
2019-02-10T09:57:05.491Z,966.59
2019-02-10T09:58:05.471Z,966.51
2019-02-10T09:59:05.455Z,966.69
2019-02-10T10:00:05.445Z,966.68
2019-02-10T10:01:05.434Z,966.75
2019-02-10T10:02:05.419Z,966.68
2019-02-10T10:03:05.462Z,966.68
2019-02-10T10:04:05.401Z,966.63
2019-02-10T10:05:05.387Z,966.32
2019-02-10T10:06:05.378Z,966.61
2019-02-10T10:07:05.365Z,966.78
2019-02-10T10:08:05.355Z,966.71
2019-02-10T10:09:05.362Z,966.53
2019-02-10T10:10:05.331Z,966.45
2019-02-10T10:11:05.323Z,966.50
2019-02-10T10:12:05.310Z,966.51
2019-02-10T10:13:05.297Z,966.60
2019-02-10T10:14:05.288Z,966.57
2019-02-10T10:15:05.291Z,966.40
2019-02-10T10:16:05.265Z,966.59
2019-02-10T10:17:05.256Z,966.46
2019-02-10T10:18:05.243Z,966.48
2019-02-10T10:19:05.233Z,966.41
2019-02-10T10:20:05.224Z,966.46
2019-02-10T10:21:05.227Z,966.41
2019-02-10T10:22:05.201Z,966.55
2019-02-10T10:23:05.189Z,966.25
2019-02-10T10:24:05.179Z,966.53
2019-02-10T10:25:05.173Z,966.46
2019-02-10T10:26:05.157Z,966.43
2019-02-10T10:27:05.159Z,966.45
2019-02-10T10:28:05.137Z,966.50
2019-02-10T10:29:05.125Z,966.32
2019-02-10T10:30:05.117Z,966.43
2019-02-10T10:31:05.105Z,966.10
2019-02-10T10:32:05.092Z,966.23
2019-02-10T10:33:05.096Z,966.27
2019-02-10T10:34:05.076Z,966.14
2019-02-10T10:35:05.061Z,966.19
2019-02-10T10:36:05.050Z,966.14
2019-02-10T10:37:05.042Z,966.27
2019-02-10T10:38:05.031Z,966.27
2019-02-10T10:39:05.035Z,966.37
2019-02-10T10:40:05.006Z,966.27
2019-02-10T10:41:04.997Z,966.33
2019-02-10T10:42:04.986Z,966.20
2019-02-10T10:43:04.976Z,966.08
2019-02-10T10:44:04.964Z,965.98
2019-02-10T10:45:04.971Z,966.07
2019-02-10T10:46:04.942Z,965.99
2019-02-10T10:47:04.929Z,965.95
2019-02-10T10:48:04.919Z,965.90
2019-02-10T10:49:04.910Z,965.71
2019-02-10T10:50:04.900Z,965.75
2019-02-10T10:51:04.903Z,965.78
2019-02-10T10:52:04.882Z,965.89
2019-02-10T10:53:04.864Z,965.80
2019-02-10T10:54:04.858Z,965.77
2019-02-10T10:55:04.847Z,965.78
2019-02-10T10:56:04.845Z,965.64
2019-02-10T10:57:04.841Z,965.65
2019-02-10T10:58:04.815Z,965.70
2019-02-10T10:59:04.813Z,965.59
2019-02-10T11:00:04.793Z,965.74
2019-02-10T11:01:04.780Z,965.56
2019-02-10T11:02:04.776Z,965.55
2019-02-10T11:03:04.818Z,965.50
2019-02-10T11:04:04.751Z,965.52
2019-02-10T11:05:04.738Z,965.48
2019-02-10T11:06:04.729Z,965.46
2019-02-10T11:07:04.719Z,965.57
2019-02-10T11:08:04.703Z,965.53
2019-02-10T11:09:04.712Z,965.48
2019-02-10T11:10:04.683Z,965.45
2019-02-10T11:11:04.671Z,965.50
2019-02-10T11:12:04.664Z,965.32
2019-02-10T11:13:04.655Z,965.47
2019-02-10T11:14:04.649Z,965.58
2019-02-10T11:15:04.648Z,965.22
2019-02-10T11:16:04.620Z,965.23
2019-02-10T11:17:04.611Z,965.18
2019-02-10T11:18:04.604Z,965.09
2019-02-10T11:19:04.588Z,965.18
2019-02-10T11:20:04.579Z,965.20
2019-02-10T11:21:04.611Z,965.17
2019-02-10T11:22:04.557Z,965.32
2019-02-10T11:23:04.550Z,965.14
2019-02-10T11:24:04.537Z,965.15
2019-02-10T11:25:04.524Z,964.98
2019-02-10T11:26:04.511Z,964.96
2019-02-10T11:27:04.517Z,964.92
2019-02-10T11:28:12.548Z,964.84
2019-02-10T11:29:04.486Z,964.82
2019-02-10T11:30:04.470Z,964.54
2019-02-10T11:31:04.460Z,964.75
2019-02-10T11:32:04.450Z,964.64
2019-02-10T11:33:04.457Z,964.73
2019-02-10T11:34:04.438Z,964.84
2019-02-10T11:35:04.416Z,964.82
2019-02-10T11:36:04.409Z,964.57
2019-02-10T11:37:04.396Z,964.60
2019-02-10T11:38:04.384Z,964.59
2019-02-10T11:39:04.386Z,964.54
2019-02-10T11:40:04.361Z,964.27
2019-02-10T11:41:04.352Z,964.42
2019-02-10T11:42:04.342Z,964.40
2019-02-10T11:43:04.330Z,964.27
2019-02-10T11:44:04.323Z,964.33
2019-02-10T11:45:04.323Z,964.46
2019-02-10T11:46:04.298Z,964.28
2019-02-10T11:47:04.288Z,964.58
2019-02-10T11:48:04.277Z,964.48
2019-02-10T11:49:04.265Z,964.35
2019-02-10T11:50:04.252Z,964.40
2019-02-10T11:51:04.262Z,964.34
2019-02-10T11:52:04.234Z,964.27
2019-02-10T11:53:04.224Z,964.45
2019-02-10T11:54:04.211Z,964.47
2019-02-10T11:55:04.201Z,964.62
2019-02-10T11:56:04.192Z,964.43
2019-02-10T11:57:04.199Z,964.58
2019-02-10T11:58:04.169Z,964.45
2019-02-10T11:59:04.160Z,964.36
2019-02-10T12:00:04.147Z,964.49
2019-02-10T12:01:04.140Z,964.67
2019-02-10T12:02:04.128Z,964.54
2019-02-10T12:03:04.128Z,964.63
2019-02-10T12:04:04.128Z,964.55
2019-02-10T12:05:04.096Z,964.45
2019-02-10T12:06:04.086Z,964.48
2019-02-10T12:07:04.073Z,964.41
2019-02-10T12:08:04.063Z,964.45
2019-02-10T12:09:04.064Z,964.34
2019-02-10T12:10:04.043Z,964.39
2019-02-10T12:11:04.041Z,964.42
2019-02-10T12:12:04.020Z,964.37
2019-02-10T12:13:04.011Z,964.58
2019-02-10T12:14:03.998Z,964.56
2019-02-10T12:15:04.007Z,964.65
2019-02-10T12:16:03.978Z,964.81
2019-02-10T12:17:03.972Z,964.76
2019-02-10T12:18:03.958Z,964.93
2019-02-10T12:19:03.946Z,964.97
2019-02-10T12:20:03.934Z,964.97
2019-02-10T12:21:03.937Z,965.11
2019-02-10T12:22:03.918Z,964.96
2019-02-10T12:23:03.902Z,965.08
2019-02-10T12:24:03.894Z,965.05
2019-02-10T12:25:03.887Z,964.94
2019-02-10T12:26:03.870Z,965.15
2019-02-10T12:27:03.870Z,965.31
2019-02-10T12:28:03.848Z,965.35